Tiempo atmosférico en la estación meteorológica de Valle de Hecho, Hecho, Huesca (855 m.)



Fecha
DESCASC
Temp. máxima en grados centígrados (hora)
DESCASC
Temp. mínima en grados centígrados (hora)
DESCASC
Temp. media en grados centígrados
DESCASC
Racha de viento máxima en m/sg (hora)
DESCASC
Velocidad máxima media en intervalos de 10 minutos(hora)
DESCASC
Precipitaciones diarias en mm
DESCASC
Precipitaciones de 00:00 a 06:00 en mm
DESCASC
Precipitaciones de 06:00 a 12:00 en mm
DESCASC
Precipitaciones de 12:00 a 18:00 en mm
DESCASC
Precipitaciones de 18:00 a 24:00 en mm
DESCASC
06-07-2020 25.6 (11:40) 12.3 (07:50) 19 16.94 (20:10) 7.78 (22:20) 0 0 0 0 0
05-07-2020 30.8 (16:20) 9.3 (07:00) 20 10.56 (20:00) 5 (23:40) 0 0 0 0 0
04-07-2020 27.7 (18:00) 4.9 (07:50) 16.3 10.83 (22:00) 5.56 (18:50) 0 0 0 0 0
03-07-2020 21.5 (15:20) 9.3 (07:30) 15.4 13.06 (19:20) 6.39 (18:20) 0 0 0 0 0
02-07-2020 25.5 (16:30) 13.8 (00:00) 19.7 12.78 (21:20) 5.83 (23:00) 0 0 0 0 0
01-07-2020 28.9 (15:00) 16 (00:00) 22.4 8.33 (16:20) 4.17 (15:40) 0 0 0 0 0
30-06-2020 29.4 (16:20) 13.2 (00:00) 21.3 7.22 (15:30) 3.33 (15:30) 0 0 0 0 0
29-06-2020 27.8 (18:00) 14.5 (00:00) 21.1 7.22 (20:20) 4.72 (20:20) 0 0 0 0 0
28-06-2020 28.4 (17:20) 15.3 (00:00) 21.8 8.89 (17:40) 4.17 (17:40) 0 0 0 0 0
27-06-2020 26.7 (15:30) 10.3 (00:00) 18.5 6.67 (13:00) 3.06 (11:20) 0 0 0 0 0
26-06-2020 27.1 (15:40) 12.2 (00:00) 19.7 10.56 (14:10) 4.72 (12:00) 0.4 0 0.2 0 0.2
25-06-2020 29.5 (15:00) 11.4 (00:00) 20.4 10.28 (20:30) 6.11 (20:30) 3.6 0 0 0 3.6
24-06-2020 31 (16:10) 12.4 (00:00) 21.7 11.39 (18:40) 5.28 (18:30) 6 0 0 0.4 5.6
23-06-2020 30.1 (17:40) 10.9 (00:00) 20.5 7.78 (13:40) 3.33 (13:40) 0 0 0 0 0
22-06-2020 28.1 (17:20) 10.6 (00:00) 19.4 13.06 (04:20) 5.56 (04:40) 0 0 0 0 0
21-06-2020 26.5 (16:40) 8.7 (00:00) 17.6 16.94 (20:10) 6.11 (20:20) 0 0 0 0 0
20-06-2020 25.4 (17:20) 10.5 (00:00) 17.9 7.22 (16:10) 3.61 (19:50) 0 0 0 0 0
19-06-2020 23.5 (17:30) 7.8 (00:00) 15.7 6.94 (14:30) 2.78 (13:10) 0 0 0 0 0
18-06-2020 19.9 (17:40) 8 (00:00) 13.9 5.56 (17:40) 3.06 (17:50) 2 0 2 0 0
17-06-2020 18.7 (16:50) 6.3 (00:00) 12.5 9.17 (14:40) 4.72 (01:10) 0 0 0 0 0
16-06-2020 18.8 (13:10) 10.6 (00:00) 14.7 7.22 (14:10) 3.89 (14:30) 4.4 0 0 4.4 0
15-06-2020 20.4 (15:30) 9.4 (00:00) 14.9 6.39 (00:10) 3.61 (20:10) 0 0 0 0 0
14-06-2020 19.3 (17:40) 7 (00:00) 13.1 8.89 (22:40) 4.17 (22:40) 0 0 0 0 0
13-06-2020 17 (19:10) 8.2 (00:00) 12.6 5.83 (15:50) 3.89 (21:10) 1.2 0 1.2 0 0
12-06-2020 14 (16:40) 7.3 (00:00) 10.7 9.44 (20:40) 5.28 (20:40) 3.4 0.2 0.2 0 3
11-06-2020 15.4 (16:10) 8.6 (00:00) 12 15.28 (23:30) 6.11 (22:40) 12.4 0.4 0.2 3.4 8.4
10-06-2020 19 (14:50) 5.3 (00:00) 12.2 11.11 (04:40) 4.72 (19:00) 0 0 0 0 0
09-06-2020 15.8 (15:20) 9.6 (00:00) 12.7 13.33 (16:00) 6.39 (15:30) 0 0 0 0 0

Gráficas

Temp. máximas Temp. mínimas Temp. medias Precipitaciones Rachas de viento máximas Velocidades máximas media en intervalos de 10 minutos

Datos horarios

Fecha y hora oficial Temperatura (ºC) Velocidad del viento (km/h) Dirección del viento Racha (km/h) Dirección de racha Precipitación (mm) Presión (hPa) Tendencia (hPa) Humedad (%)
2020-07-08 23:00:00 22 2 Sudoeste 9 Nordeste 0 -- -- 59
2020-07-08 22:00:00 25.4 0 Calma 28 Sudeste 0 -- -- 48
2020-07-08 21:00:00 27.6 8 Sur 33 Sudoeste 0 -- -- 40
2020-07-08 20:00:00 30.8 7 Sudoeste 21 Sudoeste 0 -- -- 35
2020-07-08 19:00:00 31.9 8 Sudoeste 20 Sudoeste 0 -- -- 28
2020-07-08 18:00:00 31.9 5 Sudeste 14 Sur 0 -- -- 30
2020-07-08 17:00:00 32.3 4 Oeste 13 Sudeste 0 -- -- 28
2020-07-08 16:00:00 31.1 5 Este 12 Nordeste 0 -- -- 27
2020-07-08 15:00:00 30.3 3 Noroeste 12 Sur 0 -- -- 29
2020-07-08 14:00:00 29.6 6 Sur 29 Sudoeste 0 -- -- 30
2020-07-08 13:00:00 29.5 7 Sudoeste 18 Sudoeste 0 -- -- 26
2020-07-08 12:00:00 27.6 3 Sudoeste 13 Sudoeste 0 -- -- 35
2020-07-08 11:00:00 24.3 3 Este 7 Nordeste 0 -- -- 42
2020-07-08 10:00:00 19.5 3 Este 6 Nordeste 0 -- -- 55
2020-07-08 09:00:00 14.8 2 Este 4 Nordeste 0 -- -- 71
2020-07-08 08:00:00 10.3 0 Calma 0 Calma 0 -- -- 88
2020-07-08 07:00:00 9.8 0 Calma 0 Calma 0 -- -- 84
2020-07-08 06:00:00 9.9 0 Calma 2 Sur 0 -- -- 84
2020-07-08 05:00:00 10.3 0 Calma 6 Noroeste 0 -- -- 83
2020-07-08 04:00:00 11 2 Noroeste 8 Oeste 0 -- -- 80
2020-07-08 03:00:00 11.9 0 Calma 3 Nordeste 0 -- -- 79
2020-07-08 02:00:00 12.8 0 Calma 4 Oeste 0 -- -- 77
2020-07-08 01:00:00 13.8 0 Calma 5 Oeste 0 -- -- 75
2020-07-08 00:00:00 15.6 0 Calma 4 Sur 0 -- -- 69
2020-07-07 23:00:00 17.2 0 Calma 9 Norte 0 -- -- 63
2020-07-07 22:00:00 19.5 0 Calma 11 Norte 0 -- -- 59
2020-07-07 21:00:00 23 2 Nordeste 20 Noroeste 0 -- -- 49
2020-07-07 20:00:00 26.5 6 Oeste 26 Noroeste 0 -- -- 39
2020-07-07 19:00:00 27.2 13 Noroeste 22 Noroeste 0 -- -- 38
2020-07-07 18:00:00 28.5 6 Oeste 21 Sudoeste 0 -- -- 33
2020-07-07 17:00:00 28.5 7 Sudoeste 20 Sudoeste 0 -- -- 34
2020-07-07 16:00:00 27.6 9 Sudoeste 24 Oeste 0 -- -- 36
2020-07-07 15:00:00 27.3 7 Noroeste 19 Noroeste 0 -- -- 37
2020-07-07 14:00:00 26.3 5 Sur 14 Sur 0 -- -- 40
2020-07-07 13:00:00 24.9 5 Sudeste 12 Sudeste 0 -- -- 45
2020-07-07 12:00:00 22.5 6 Sudeste 12 Sur 0 -- -- 43
2020-07-07 11:00:00 19.4 5 Sudeste 10 Sudeste 0 -- -- 53
2020-07-07 10:00:00 15.3 7 Nordeste 11 Nordeste 0 -- -- 63
2020-07-07 09:00:00 11.3 3 Nordeste 6 Este 0 -- -- 76
2020-07-07 08:00:00 7.2 2 Nordeste 4 Este 0 -- -- 91
2020-07-07 07:00:00 6.9 0 Calma 3 Oeste 0 -- -- 88
2020-07-07 06:00:00 7.6 0 Calma 3 Sudoeste 0 -- -- 87
2020-07-07 05:00:00 8.2 0 Calma 6 Nordeste 0 -- -- 87
2020-07-07 04:00:00 9.3 3 Oeste 7 Oeste 0 -- -- 81
2020-07-07 03:00:00 10.6 3 Sudoeste 8 Sudoeste 0 -- -- 79
2020-07-07 02:00:00 11.6 2 Este 16 Sudoeste 0 -- -- 79
2020-07-07 01:00:00 13.6 4 Sudeste 13 Nordeste 0 -- -- 68
2020-07-07 00:00:00 17.6 13 Este 42 Noroeste 0 -- -- 52
2020-07-06 23:00:00 18.3 19 Nordeste 53 Nordeste 0 -- -- 46
2020-07-06 22:00:00 18.2 17 Norte 52 Nordeste 0 -- -- 55
2020-07-06 21:00:00 18.9 20 Norte 61 Nordeste 0 -- -- 56
2020-07-06 20:00:00 20.3 22 Norte 52 Norte 0 -- -- 55
2020-07-06 19:00:00 21.9 24 Norte 56 Norte 0 -- -- 52
2020-07-06 18:00:00 22.8 20 Norte 51 Nordeste 0 -- -- 51
2020-07-06 17:00:00 23.3 19 Norte 50 Norte 0 -- -- 50
2020-07-06 16:00:00 24.2 22 Noroeste 43 Noroeste 0 -- -- 47
2020-07-06 15:00:00 24.5 19 Noroeste 53 Nordeste 0 -- -- 47
2020-07-06 14:00:00 24.1 16 Norte 48 Nordeste 0 -- -- 50
2020-07-06 13:00:00 24.7 15 Norte 34 Noroeste 0 -- -- 48
2020-07-06 12:00:00 25.5 10 Norte 28 Nordeste 0 -- -- 48
2020-07-06 11:00:00 24.2 4 Sudoeste 12 Sudeste 0 -- -- 52
2020-07-06 10:00:00 21.3 6 Sudeste 10 Sudeste 0 -- -- 62
2020-07-06 09:00:00 17.8 3 Sur 7 Sudeste 0 -- -- 76
2020-07-06 08:00:00 13.1 3 Sudoeste 8 Noroeste 0 -- -- 94
2020-07-06 07:00:00 12.6 3 Oeste 6 Oeste 0 -- -- 91
2020-07-06 06:00:00 13.3 3 Sudoeste 6 Sur 0 -- -- 90
2020-07-06 05:00:00 14 2 Sudoeste 5 Sudoeste 0 -- -- 87
2020-07-06 04:00:00 14.9 3 Sudoeste 8 Sudeste 0 -- -- 86
2020-07-06 03:00:00 16 2 Sur 10 Sudoeste 0 -- -- 83
2020-07-06 02:00:00 18 5 Sudoeste 26 Nordeste 0 -- -- 75
2020-07-06 01:00:00 20.5 13 Nordeste 36 Norte 0 -- -- 62
2020-07-06 00:00:00 21.1 16 Nordeste 36 Nordeste 0 -- -- 61
2020-07-05 23:00:00 21.6 16 Norte 38 Nordeste 0 -- -- 62
2020-07-05 22:00:00 22.2 13 Norte 33 Norte 0 -- -- 62
2020-07-05 21:00:00 23.3 12 Norte 33 Nordeste 0 -- -- 60
2020-07-05 20:00:00 24.9 18 Norte 38 Nordeste 0 -- -- 56
2020-07-05 19:00:00 28.4 8 Norte 24 Noroeste 0 -- -- 47
2020-07-05 18:00:00 30.1 12 Noroeste 22 Noroeste 0 -- -- 39
2020-07-05 17:00:00 30.8 8 Oeste 24 Sudoeste 0 -- -- 37
2020-07-05 16:00:00 30.7 8 Sudoeste 18 Sur 0 -- -- 34
2020-07-05 15:00:00 29.9 9 Sudoeste 21 Sur 0 -- -- 35
2020-07-05 14:00:00 28.8 6 Sur 18 Sudeste 0 -- -- 38
2020-07-05 13:00:00 27.7 6 Sur 12 Sur 0 -- -- 36
2020-07-05 12:00:00 26.2 6 Sudeste 10 Sudeste 0 -- -- 35
2020-07-05 11:00:00 24.1 4 Sur 9 Sudoeste 0 -- -- 43
2020-07-05 10:00:00 19.8 3 Sur 7 Sur 0 -- -- 50
2020-07-05 09:00:00 15.4 2 Sudeste 5 Nordeste 0 -- -- 65
2020-07-05 08:00:00 10 0 Calma 4 Sudoeste 0 -- -- 84
2020-07-05 07:00:00 9.3 0 Calma 4 Sudoeste 0 -- -- 81
2020-07-05 06:00:00 9.6 0 Calma 4 Oeste 0 -- -- 79
2020-07-05 05:00:00 10.4 0 Calma 4 Sudoeste 0 -- -- 77
2020-07-05 04:00:00 11.5 2 Sudoeste 4 Sudoeste 0 -- -- 72
2020-07-05 03:00:00 12.3 0 Calma 4 Nordeste 0 -- -- 66
2020-07-05 02:00:00 13.7 2 Sudoeste 6 Sudoeste 0 -- -- 62
2020-07-05 01:00:00 15.2 3 Sudoeste 13 Sudoeste 0 -- -- 56
2020-07-05 00:00:00 17.9 3 Sudoeste 26 Nordeste 0 -- -- 46
2020-07-04 23:00:00 22.2 13 Norte 34 Nordeste 0 -- -- 30
2020-07-04 22:00:00 22.5 14 Norte 39 Nordeste 0 -- -- 26
2020-07-04 21:00:00 23.4 15 Norte 37 Nordeste 0 -- -- 23
2020-07-04 20:00:00 24.9 12 Noroeste 30 Norte 0 -- -- 25
2020-07-04 19:00:00 25.5 17 Nordeste 33 Norte 0 -- -- 30
2020-07-04 18:00:00 27.7 10 Oeste 24 Oeste 0 -- -- 32
2020-07-04 17:00:00 27.5 7 Oeste 20 Oeste 0 -- -- 35
2020-07-04 16:00:00 27.6 6 Sur 23 Sudoeste 0 -- -- 37
2020-07-04 15:00:00 26.3 4 Noroeste 17 Oeste 0 -- -- 38
2020-07-04 14:00:00 24.7 7 Oeste 22 Oeste 0 -- -- 42
2020-07-04 13:00:00 23.6 5 Este 15 Noroeste 0 -- -- 43
2020-07-04 12:00:00 21.5 5 Este 15 Sudeste 0 -- -- 43
2020-07-04 11:00:00 18.5 4 Sudeste 10 Este 0 -- -- 48
2020-07-04 10:00:00 14.8 5 Nordeste 9 Nordeste 0 -- -- 58
2020-07-04 09:00:00 10.7 2 Sudeste 7 Nordeste 0 -- -- 74
2020-07-04 08:00:00 5.6 5 Nordeste 7 Nordeste 0 -- -- 93
2020-07-04 07:00:00 5.2 2 Oeste 4 Sudoeste 0 -- -- 90
2020-07-04 06:00:00 5.8 0 Calma 4 Nordeste 0 -- -- 91
2020-07-04 05:00:00 6.5 0 Calma 4 Noroeste 0 -- -- 88
2020-07-04 04:00:00 7.5 0 Calma 4 Nordeste 0 -- -- 88
2020-07-04 03:00:00 8.5 0 Calma 5 Oeste 0 -- -- 85
2020-07-04 02:00:00 9.8 3 Sudoeste 7 Sudoeste 0 -- -- 81
2020-07-04 01:00:00 11.7 4 Sur 14 Nordeste 0 -- -- 75
2020-07-04 00:00:00 14.4 7 Norte 23 Nordeste 0 -- -- 56
2020-07-03 23:00:00 15.2 11 Norte 38 Nordeste 0 -- -- 57
2020-07-03 22:00:00 15.7 16 Norte 40 Nordeste 0 -- -- 58
2020-07-03 21:00:00 16.6 17 Noroeste 37 Norte 0 -- -- 56
2020-07-03 20:00:00 18.5 15 Norte 47 Norte 0 -- -- 52
2020-07-03 19:00:00 19.8 18 Norte 43 Nordeste 0 -- -- 50
2020-07-03 18:00:00 20.4 21 Norte 39 Norte 0 -- -- 49
2020-07-03 17:00:00 21.4 14 Norte 34 Norte 0 -- -- 47
2020-07-03 16:00:00 21.5 13 Nordeste 29 Nordeste 0 -- -- 47
2020-07-03 15:00:00 21.2 13 Nordeste 33 Nordeste 0 -- -- 48
2020-07-03 14:00:00 20.3 14 Norte 36 Nordeste 0 -- -- 50
2020-07-03 13:00:00 19.4 13 Norte 35 Nordeste 0 -- -- 50
2020-07-03 12:00:00 18.6 14 Nordeste 36 Norte 0 -- -- 51
2020-07-03 11:00:00 17 16 Nordeste 38 Nordeste 0 -- -- 52
2020-07-03 10:00:00 16.1 18 Nordeste 36 Nordeste 0 -- -- 56
2020-07-03 09:00:00 14.4 6 Este 14 Sudoeste 0 -- -- 72
2020-07-03 08:00:00 10 4 Sudoeste 19 Sudoeste 0 -- -- 91
2020-07-03 07:00:00 9.5 3 Sudoeste 16 Sudoeste 0 -- -- 88
2020-07-03 06:00:00 10.9 6 Sur 33 Norte 0 -- -- 81
2020-07-03 05:00:00 14.2 18 Norte 43 Nordeste 0 -- -- 64
2020-07-03 04:00:00 14.3 15 Nordeste 33 Nordeste 0 -- -- 65
2020-07-03 03:00:00 15 16 Nordeste 41 Nordeste 0 -- -- 62
2020-07-03 02:00:00 15.6 17 Norte 43 Nordeste 0 -- -- 61
2020-07-03 01:00:00 15.6 17 Norte 39 Noroeste 0 -- -- 62
2020-07-03 00:00:00 15.8 18 Noroeste 36 Noroeste 0 -- -- 63
2020-07-02 23:00:00 16.3 21 Noroeste 40 Noroeste 0 -- -- 62
2020-07-02 22:00:00 16.7 19 Noroeste 46 Noroeste 0 -- -- 62
2020-07-02 21:00:00 17.6 17 Noroeste 39 Noroeste 0 -- -- 61
2020-07-02 20:00:00 19.1 16 Noroeste 40 Noroeste 0 -- -- 60
2020-07-02 19:00:00 20.7 12 Norte 36 Nordeste 0 -- -- 58
2020-07-02 18:00:00 22.4 11 Norte 27 Nordeste 0 -- -- 56
2020-07-02 17:00:00 25.3 10 Oeste 25 Noroeste 0 -- -- 47
2020-07-02 16:00:00 25.1 8 Noroeste 24 Noroeste 0 -- -- 43
2020-07-02 15:00:00 25.1 10 Oeste 21 Oeste 0 -- -- 48
2020-07-02 14:00:00 24.1 8 Norte 19 Noroeste 0 -- -- 59
2020-07-02 13:00:00 22.3 10 Noroeste 23 Noroeste 0 -- -- 67
2020-07-02 12:00:00 23 8 Sudoeste 17 Sudoeste 0 -- -- 64
2020-07-02 11:00:00 21.4 6 Sudoeste 13 Sudoeste 0 -- -- 72
2020-07-02 10:00:00 18.9 4 Sudeste 10 Sudoeste 0 -- -- 76
2020-07-02 09:00:00 15.9 3 Sur 6 Sudeste 0 -- -- 87
2020-07-02 08:00:00 14.8 0 Calma 6 Norte 0 -- -- 92
2020-07-02 07:00:00 14.1 0 Calma 14 Sudoeste 0 -- -- 91
2020-07-02 06:00:00 13.9 2 Oeste 4 Oeste 0 -- -- 90
2020-07-02 05:00:00 14.3 0 Calma 5 Noroeste 0 -- -- 90
2020-07-02 04:00:00 14.5 2 Norte 6 Nordeste 0 -- -- 89
2020-07-02 03:00:00 14.8 0 Calma 5 Noroeste 0 -- -- 88
2020-07-02 02:00:00 15.1 3 Nordeste 5 Nordeste 0 -- -- 85
2020-07-02 01:00:00 16.3 2 Nordeste 6 Nordeste 0 -- -- 82
2020-07-02 00:00:00 17.5 3 Noroeste 8 Noroeste 0 -- -- 78
2020-07-01 23:00:00 19.2 2 Nordeste 7 Noroeste 0 -- -- 72
2020-07-01 22:00:00 21.3 5 Norte 25 Noroeste 0 -- -- 68
2020-07-01 21:00:00 24.4 9 Oeste 20 Oeste 0 -- -- 60
2020-07-01 20:00:00 25.6 10 Oeste 20 Oeste 0 -- -- 52
2020-07-01 19:00:00 26.2 11 Noroeste 26 Oeste 0 -- -- 52
2020-07-01 18:00:00 28.5 9 Oeste 24 Noroeste 0 -- -- 45
2020-07-01 17:00:00 28.3 9 Noroeste 30 Oeste 0 -- -- 46
2020-07-01 16:00:00 28.4 12 Sudoeste 24 Sudoeste 0 -- -- 48
2020-07-01 15:00:00 28.9 5 Sudeste 24 Oeste 0 -- -- 46
2020-07-01 14:00:00 27.3 7 Sur 23 Sudoeste 0 -- -- 49
2020-07-01 13:00:00 28.5 12 Sudoeste 24 Sudoeste 0 -- -- 50
2020-07-01 12:00:00 25.9 3 Sur 6 Sur 0 -- -- 61
2020-07-01 11:00:00 23.2 0 Calma 4 Este 0 -- -- 67
2020-07-01 10:00:00 21.2 2 Sudeste 5 Sudeste 0 -- -- 78
2020-07-01 09:00:00 17.9 0 Calma 3 Sudeste 0 -- -- 88
2020-07-01 08:00:00 16.2 0 Calma 3 Noroeste 0 -- -- 93
2020-07-01 07:00:00 16.1 0 Calma 4 Este 0 -- -- 91
2020-07-01 06:00:00 16.8 0 Calma 4 Noroeste 0 -- -- 91
2020-07-01 05:00:00 17.4 0 Calma 5 Sudoeste 0 -- -- 88
2020-07-01 04:00:00 18.4 0 Calma 5 Nordeste 0 -- -- 85
2020-07-01 03:00:00 19.3 4 Noroeste 6 Noroeste 0 -- -- 84
2020-07-01 02:00:00 20 3 Norte 8 Nordeste 0 -- -- 80
2020-07-01 01:00:00 21 5 Norte 11 Norte 0 -- -- 77
2020-07-01 00:00:00 20.9 4 Nordeste 13 Oeste 0 -- -- 79
2020-06-30 23:00:00 22.5 4 Noroeste 17 Norte 0 -- -- 73
2020-06-30 22:00:00 23.5 3 Nordeste 9 Nordeste 0 -- -- 71
2020-06-30 21:00:00 25.2 4 Sudeste 13 Sur 0 -- -- 63
2020-06-30 20:00:00 26.4 4 Sudoeste 17 Sudoeste 0 -- -- 58
2020-06-30 19:00:00 27.9 6 Sudoeste 17 Sudoeste 0 -- -- 54
2020-06-30 18:00:00 29.2 6 Oeste 19 Sudoeste 0 -- -- 51
2020-06-30 17:00:00 28.9 8 Sur 22 Sudoeste 0 -- -- 49
2020-06-30 16:00:00 29.1 8 Sur 26 Sudoeste 0 -- -- 50
2020-06-30 15:00:00 28.6 8 Sur 21 Sur 0 -- -- 55
2020-06-30 14:00:00 27.8 9 Sudoeste 23 Sudoeste 0 -- -- 58
2020-06-30 13:00:00 27.2 9 Sudoeste 19 Sur 0 -- -- 59
2020-06-30 12:00:00 26.1 10 Sudoeste 22 Sudoeste 0 -- -- 61
2020-06-30 11:00:00 24 4 Sudoeste 8 Sur 0 -- -- 67
2020-06-30 10:00:00 20.6 3 Este 6 Este 0 -- -- 69
2020-06-30 09:00:00 16 0 Calma 4 Este 0 -- -- 90
2020-06-30 08:00:00 14.3 0 Calma 4 Sur 0 -- -- 93
2020-06-30 07:00:00 13.4 0 Calma 2 Oeste 0 -- -- 93
2020-06-30 06:00:00 13.5 0 Calma 2 Oeste 0 -- -- 92
2020-06-30 05:00:00 14.1 0 Calma 3 Oeste 0 -- -- 91
2020-06-30 04:00:00 14.2 0 Calma 6 Nordeste 0 -- -- 91
2020-06-30 03:00:00 14.6 3 Norte 5 Sudoeste 0 -- -- 89
2020-06-30 02:00:00 15.3 0 Calma 4 Sudoeste 0 -- -- 88
2020-06-30 01:00:00 16.6 0 Calma 3 Sudoeste 0 -- -- 84
2020-06-30 00:00:00 17.6 0 Calma 4 Nordeste 0 -- -- 82
2020-06-29 23:00:00 18.8 0 Calma 6 Norte 0 -- -- 76
2020-06-29 22:00:00 20.8 4 Nordeste 21 Oeste 0 -- -- 70
2020-06-29 21:00:00 23.1 10 Noroeste 26 Oeste 0 -- -- 61
2020-06-29 20:00:00 26.3 10 Noroeste 17 Noroeste 0 -- -- 54
2020-06-29 19:00:00 27.1 8 Noroeste 21 Norte 0 -- -- 51
2020-06-29 18:00:00 27.8 6 Oeste 19 Oeste 0 -- -- 47
2020-06-29 17:00:00 26.9 5 Oeste 18 Noroeste 0 -- -- 51
2020-06-29 16:00:00 26.9 5 Este 20 Oeste 0 -- -- 52
2020-06-29 15:00:00 26.4 6 Oeste 17 Sudoeste 0 -- -- 55
2020-06-29 14:00:00 25.1 4 Nordeste 15 Sur 0 -- -- 57
2020-06-29 13:00:00 25.6 8 Sudoeste 17 Sudoeste 0 -- -- 58
2020-06-29 12:00:00 24.8 4 Sur 12 Sur 0 -- -- 63
2020-06-29 11:00:00 22.6 4 Sudeste 11 Sudoeste 0 -- -- 65
2020-06-29 10:00:00 20.9 4 Sur 8 Sur 0 -- -- 70
2020-06-29 09:00:00 18 3 Nordeste 7 Este 0 -- -- 78
2020-06-29 08:00:00 14.7 0 Calma 2 Sudeste 0 -- -- 91
2020-06-29 07:00:00 14.6 0 Calma 3 Oeste 0 -- -- 89
2020-06-29 06:00:00 15.3 2 Sudoeste 4 Nordeste 0 -- -- 87
2020-06-29 05:00:00 15.9 2 Norte 5 Noroeste 0 -- -- 86
2020-06-29 04:00:00 16.1 0 Calma 5 Nordeste 0 -- -- 83
2020-06-29 03:00:00 16.2 0 Calma 7 Sur 0 -- -- 81
2020-06-29 02:00:00 16.1 0 Calma 4 Este 0 -- -- 81
2020-06-29 01:00:00 16.9 2 Nordeste 11 Oeste 0 -- -- 78
2020-06-29 00:00:00 18.2 3 Norte 17 Noroeste 0 -- -- 74
2020-06-28 23:00:00 20 9 Noroeste 19 Norte 0 -- -- 69
2020-06-28 22:00:00 21.2 5 Noroeste 18 Noroeste 0 -- -- 67
2020-06-28 21:00:00 22.7 9 Nordeste 21 Oeste 0 -- -- 64
2020-06-28 20:00:00 26.7 7 Noroeste 12 Oeste 0 -- -- 50
2020-06-28 19:00:00 25.9 6 Norte 15 Sudoeste 0 -- -- 50
2020-06-28 18:00:00 27.4 8 Oeste 32 Oeste 0 -- -- 46
2020-06-28 17:00:00 27.7 6 Sudoeste 24 Sudoeste 0 -- -- 48
2020-06-28 16:00:00 27.6 11 Sudoeste 22 Sudoeste 0 -- -- 47
2020-06-28 15:00:00 25.7 8 Sudoeste 15 Sudoeste 0 -- -- 56
2020-06-28 14:00:00 25 5 Noroeste 21 Noroeste 0 -- -- 55
2020-06-28 13:00:00 24.2 6 Noroeste 12 Oeste 0 -- -- 63
2020-06-28 12:00:00 23.9 4 Sur 9 Sudoeste 0 -- -- 61
2020-06-28 11:00:00 21.5 2 Sur 5 Nordeste 0 -- -- 69
2020-06-28 10:00:00 18.4 0 Calma 3 Nordeste 0 -- -- 81
2020-06-28 09:00:00 16.7 2 Sudeste 4 Sudoeste 0 -- -- 88
2020-06-28 08:00:00 15.7 0 Calma 3 Oeste 0 -- -- 90
2020-06-28 07:00:00 15.3 0 Calma 2 Nordeste 0 -- -- 89
2020-06-28 06:00:00 15.8 0 Calma 4 Noroeste 0 -- -- 88
2020-06-28 05:00:00 16.1 0 Calma 4 Sudoeste 0 -- -- 86
2020-06-28 04:00:00 15.9 0 Calma 3 Noroeste 0 -- -- 87
2020-06-28 03:00:00 15.9 0 Calma 3 Oeste 0 -- -- 86
2020-06-28 02:00:00 16.5 0 Calma 3 Noroeste 0 -- -- 82
2020-06-28 01:00:00 17 0 Calma 3 Sudoeste 0 -- -- 79
2020-06-28 00:00:00 17.4 0 Calma 6 Noroeste 0 -- -- 77
2020-06-27 23:00:00 18.4 3 Norte 12 Noroeste 0 -- -- 72
2020-06-27 22:00:00 20.6 10 Norte 15 Norte 0 -- -- 63
2020-06-27 21:00:00 22.1 8 Norte 16 Nordeste 0 -- -- 58
2020-06-27 20:00:00 24.3 0 Calma 10 Oeste 0 -- -- 53
2020-06-27 19:00:00 26.2 9 Noroeste 24 Oeste 0 -- -- 45
2020-06-27 18:00:00 26.1 3 Sur 13 Oeste 0 -- -- 42
2020-06-27 17:00:00 26.2 5 Nordeste 21 Oeste 0 -- -- 41
2020-06-27 16:00:00 25.6 8 Noroeste 20 Sudoeste 0 -- -- 42
2020-06-27 15:00:00 26.3 9 Sudoeste 22 Sudoeste 0 -- -- 41
2020-06-27 14:00:00 26 9 Sur 21 Sudoeste 0 -- -- 38
2020-06-27 13:00:00 25.3 10 Sudoeste 24 Sur 0 -- -- 45
2020-06-27 12:00:00 24.5 11 Sur 23 Sur 0 -- -- 44
2020-06-27 11:00:00 22.9 8 Sudoeste 14 Sur 0 -- -- 51
2020-06-27 10:00:00 18.7 3 Este 7 Este 0 -- -- 69
2020-06-27 09:00:00 14.1 3 Este 5 Este 0 -- -- 88
2020-06-27 08:00:00 11.1 0 Calma 3 Este 0 -- -- 95
2020-06-27 07:00:00 10.5 0 Calma 3 Sudoeste 0 -- -- 93
2020-06-27 06:00:00 10.6 0 Calma 4 Sudoeste 0 -- -- 92
2020-06-27 05:00:00 11.1 0 Calma 4 Oeste 0 -- -- 92
2020-06-27 04:00:00 11.7 0 Calma 3 Noroeste 0 -- -- 91
2020-06-27 03:00:00 12.5 0 Calma 5 Oeste 0 -- -- 90
2020-06-27 02:00:00 13.4 0 Calma 9 Norte 0 -- -- 88
2020-06-27 01:00:00 14.6 0 Calma 13 Norte 0 -- -- 84
2020-06-27 00:00:00 15.2 5 Norte 14 Noroeste 0.2 -- -- 81
2020-06-26 23:00:00 16.4 5 Norte 14 Noroeste 0 -- -- 69
2020-06-26 22:00:00 19.6 7 Norte 26 Noroeste 0 -- -- 54
2020-06-26 21:00:00 20.2 9 Sudoeste 18 Sudoeste 0 -- -- 50
2020-06-26 20:00:00 20.6 5 Oeste 34 Sur 0 -- -- 54
2020-06-26 19:00:00 22.1 17 Sur 36 Sudeste 0 -- -- 53
2020-06-26 18:00:00 23.6 8 Sur 31 Sudeste 0 -- -- 47
2020-06-26 17:00:00 25.1 10 Sur 30 Sudoeste 0 -- -- 42
2020-06-26 16:00:00 26.5 11 Sur 34 Sur 0 -- -- 41
2020-06-26 15:00:00 26.6 15 Sudeste 38 Sudoeste 0 -- -- 40
2020-06-26 14:00:00 26.7 16 Sur 35 Sudoeste 0 -- -- 40
2020-06-26 13:00:00 25.6 12 Sudeste 32 Sur 0 -- -- 40
2020-06-26 12:00:00 23.5 17 Sudoeste 35 Sudoeste 0 -- -- 44
2020-06-26 11:00:00 20.3 2 Este 10 Sudoeste 0 -- -- 76
2020-06-26 10:00:00 16 0 Calma 6 Nordeste 0.2 -- -- 91
2020-06-26 09:00:00 14.2 3 Nordeste 5 Nordeste 0 -- -- 97
2020-06-26 08:00:00 12.6 0 Calma 4 Oeste 0 -- -- 96
2020-06-26 07:00:00 12.3 2 Nordeste 6 Oeste 0 -- -- 95
2020-06-26 06:00:00 12.5 4 Nordeste 6 Nordeste 0 -- -- 95
2020-06-26 05:00:00 13.2 2 Noroeste 8 Nordeste 0 -- -- 94
2020-06-26 04:00:00 13.7 2 Oeste 7 Norte 0 -- -- 95
2020-06-26 03:00:00 14.3 2 Sur 4 Este 0 -- -- 93
2020-06-26 02:00:00 14.8 0 Calma 5 Sudoeste 0 -- -- 93
2020-06-26 01:00:00 15.2 2 Nordeste 10 Noroeste 0 -- -- 90
2020-06-26 00:00:00 15.6 4 Nordeste 24 Este 0.4 -- -- 88
2020-06-25 23:00:00 16.1 9 Nordeste 19 Nordeste 1.2 -- -- 91
2020-06-25 22:00:00 17.2 11 Norte 26 Noroeste 0.6 -- -- 78
2020-06-25 21:00:00 18.8 13 Noroeste 37 Noroeste 1.4 -- -- 78
2020-06-25 20:00:00 24.8 4 Sur 35 Sudoeste 0 -- -- 53
2020-06-25 19:00:00 26.4 6 Norte 17 Norte 0 -- -- 50
2020-06-25 18:00:00 28.8 2 Sudeste 13 Sudeste 0 -- -- 40
2020-06-25 17:00:00 29.4 5 Sur 18 Oeste 0 -- -- 39
2020-06-25 16:00:00 28.3 6 Oeste 30 Sur 0 -- -- 44
2020-06-25 15:00:00 29.5 5 Sur 18 Sudoeste 0 -- -- 41
2020-06-25 14:00:00 29 8 Sudoeste 19 Sudoeste 0 -- -- 41
2020-06-25 13:00:00 28 8 Sudoeste 17 Sudoeste 0 -- -- 41
2020-06-25 12:00:00 25.5 4 Este 8 Nordeste 0 -- -- 57
2020-06-25 11:00:00 22.4 4 Este 8 Este 0 -- -- 66
2020-06-25 10:00:00 19 3 Nordeste 6 Nordeste 0 -- -- 82
2020-06-25 09:00:00 14.7 0 Calma 5 Nordeste 0 -- -- 95
2020-06-25 08:00:00 12.3 2 Nordeste 6 Este 0 -- -- 96
2020-06-25 07:00:00 11.4 0 Calma 3 Oeste 0 -- -- 95
2020-06-25 06:00:00 11.9 0 Calma 3 Nordeste 0 -- -- 95
2020-06-25 05:00:00 12.3 0 Calma 4 Este 0 -- -- 95
2020-06-25 04:00:00 12.9 0 Calma 4 Noroeste 0 -- -- 94
2020-06-25 03:00:00 12.9 0 Calma 10 Noroeste 0 -- -- 94
2020-06-25 02:00:00 13.9 3 Nordeste 7 Oeste 0 -- -- 93
2020-06-25 01:00:00 14.5 2 Nordeste 5 Sudoeste 0 -- -- 92
2020-06-25 00:00:00 15 3 Sur 8 Norte 0 -- -- 91
2020-06-24 23:00:00 15.1 4 Nordeste 13 Nordeste 0 -- -- 88
2020-06-24 22:00:00 15.5 4 Norte 12 Norte 0 -- -- 87
2020-06-24 21:00:00 15.4 4 Nordeste 17 Norte 0.6 -- -- 88
2020-06-24 20:00:00 15.6 4 Este 34 Norte 4.8 -- -- 81
2020-06-24 19:00:00 17.9 17 Norte 41 Nordeste 0.2 -- -- 69
2020-06-24 18:00:00 20.5 15 Noroeste 33 Norte 0.4 -- -- 69
2020-06-24 17:00:00 25.1 15 Norte 22 Norte 0 -- -- 58
2020-06-24 16:00:00 30.8 9 Sur 26 Sudoeste 0 -- -- 37
2020-06-24 15:00:00 30.2 8 Sudoeste 23 Sudoeste 0 -- -- 40
2020-06-24 14:00:00 29.7 7 Sudoeste 24 Sudoeste 0 -- -- 42
2020-06-24 13:00:00 29.2 10 Sur 21 Sur 0 -- -- 44
2020-06-24 12:00:00 28.4 5 Sudeste 9 Sudeste 0 -- -- 45
2020-06-24 11:00:00 25.8 4 Sudeste 8 Este 0 -- -- 50
2020-06-24 10:00:00 21.9 4 Nordeste 8 Nordeste 0 -- -- 62
2020-06-24 09:00:00 18.1 4 Nordeste 6 Este 0 -- -- 76
2020-06-24 08:00:00 13.7 0 Calma 4 Noroeste 0 -- -- 87
2020-06-24 07:00:00 12.5 0 Calma 5 Oeste 0 -- -- 88
2020-06-24 06:00:00 12.9 2 Sur 4 Sudoeste 0 -- -- 86
2020-06-24 05:00:00 13.1 0 Calma 5 Nordeste 0 -- -- 85
2020-06-24 04:00:00 13.9 0 Calma 4 Este 0 -- -- 82
2020-06-24 03:00:00 14.5 2 Nordeste 5 Sudoeste 0 -- -- 79
2020-06-24 02:00:00 14.9 0 Calma 4 Nordeste 0 -- -- 77
2020-06-24 01:00:00 16.2 3 Sudoeste 10 Noroeste 0 -- -- 72
2020-06-24 00:00:00 16.8 2 Nordeste 5 Nordeste 0 -- -- 70
2020-06-23 23:00:00 18.4 0 Calma 4 Sur 0 -- -- 66
2020-06-23 22:00:00 20.2 3 Este 15 Norte 0 -- -- 59
2020-06-23 21:00:00 24 4 Norte 10 Norte 0 -- -- 45
2020-06-23 20:00:00 29.1 5 Oeste 15 Sudoeste 0 -- -- 32
2020-06-23 19:00:00 29.3 4 Sur 15 Sur 0 -- -- 34
2020-06-23 18:00:00 29.8 4 Sur 16 Sur 0 -- -- 35
2020-06-23 17:00:00 29.7 5 Sur 21 Sudoeste 0 -- -- 29
2020-06-23 16:00:00 29.4 8 Sur 22 Sudoeste 0 -- -- 32
2020-06-23 15:00:00 29.1 9 Sudoeste 24 Sur 0 -- -- 37
2020-06-23 14:00:00 28.5 11 Sudoeste 28 Sudoeste 0 -- -- 36
2020-06-23 13:00:00 27.9 12 Sudoeste 24 Sudoeste 0 -- -- 38
2020-06-23 12:00:00 26.8 12 Sudoeste 20 Sudoeste 0 -- -- 43
2020-06-23 11:00:00 24.7 6 Sur 15 Sudoeste 0 -- -- 53
2020-06-23 10:00:00 21.4 2 Nordeste 7 Este 0 -- -- 63
2020-06-23 09:00:00 16.5 0 Calma -- -- 0 -- -- 72
2020-06-23 08:00:00 12.1 0 Calma -- -- 0 -- -- 88
2020-06-23 07:00:00 11 0 Calma -- -- 0 -- -- 85
2020-06-23 06:00:00 11.3 0 Calma -- -- 0 -- -- 83
2020-06-23 05:00:00 11.8 0 Calma -- -- 0 -- -- 82
2020-06-23 04:00:00 12.6 0 Calma -- -- 0 -- -- 80
2020-06-23 03:00:00 13.6 0 Calma 5 Noroeste 0 -- -- 74
2020-06-23 02:00:00 14.4 0 Calma 3 Sudoeste 0 -- -- 68
2020-06-23 01:00:00 15.9 0 Calma 7 Sur 0 -- -- 67
2020-06-23 00:00:00 17.8 4 Nordeste 16 Nordeste 0 -- -- 57
2020-06-22 23:00:00 20.8 7 Norte 14 Norte 0 -- -- 45
2020-06-22 22:00:00 22.1 4 Norte 22 Noroeste 0 -- -- 43
2020-06-22 21:00:00 24.2 12 Noroeste 24 Norte 0 -- -- 35
2020-06-22 20:00:00 25.7 12 Norte 31 Norte 0 -- -- 35
2020-06-22 19:00:00 26.9 9 Norte 28 Nordeste 0 -- -- 35
2020-06-22 18:00:00 28.1 9 Oeste 19 Noroeste 0 -- -- 40
2020-06-22 17:00:00 27.8 9 Oeste 22 Noroeste 0 -- -- 44
2020-06-22 16:00:00 27.8 4 Sudeste 17 Oeste 0 -- -- 45
2020-06-22 15:00:00 26.4 6 Sudoeste 18 Noroeste 0 -- -- 43
2020-06-22 14:00:00 25.7 8 Sur 17 Sudoeste 0 -- -- 47
2020-06-22 13:00:00 24.6 7 Sur 15 Sur 0 -- -- 48
2020-06-22 12:00:00 23.3 6 Este 13 Sur 0 -- -- 53
2020-06-22 11:00:00 21.5 6 Sudeste 11 Sudoeste 0 -- -- 51
2020-06-22 10:00:00 19.1 4 Sudoeste 9 Sur 0 -- -- 59
2020-06-22 09:00:00 15.7 4 Sur 9 Sur 0 -- -- 70
2020-06-22 08:00:00 11.6 4 Sudoeste 12 Sur 0 -- -- 82
2020-06-22 07:00:00 10.8 2 Sur 16 Sur 0 -- -- 83
2020-06-22 06:00:00 12.4 6 Sudoeste 35 Sudoeste 0 -- -- 78
2020-06-22 05:00:00 17.1 12 Este 47 Norte 0 -- -- 58
2020-06-22 04:00:00 18.9 14 Norte 41 Norte 0 -- -- 51
2020-06-22 03:00:00 19.3 12 Norte 33 Nordeste 0 -- -- 50
2020-06-22 02:00:00 19.1 16 Norte 36 Norte 0 -- -- 51
2020-06-22 01:00:00 18.4 13 Norte 43 Nordeste 0 -- -- 53
2020-06-22 00:00:00 18.3 17 Norte 51 Nordeste 0 -- -- 55
2020-06-21 23:00:00 18.5 19 Norte 46 Nordeste 0 -- -- 54
2020-06-21 22:00:00 18.7 21 Norte 61 Norte 0 -- -- 54
2020-06-21 21:00:00 19.3 21 Norte 61 Norte 0 -- -- 53
2020-06-21 20:00:00 21.1 18 Norte 50 Norte 0 -- -- 45
2020-06-21 19:00:00 22.3 15 Norte 39 Nordeste 0 -- -- 44
2020-06-21 18:00:00 23.5 17 Norte 40 Noroeste 0 -- -- 49
2020-06-21 17:00:00 25.5 17 Norte 36 Oeste 0 -- -- 47
2020-06-21 16:00:00 26.1 18 Oeste 38 Oeste 0 -- -- 39
2020-06-21 15:00:00 26.2 14 Oeste 32 Oeste 0 -- -- 41
2020-06-21 14:00:00 25.8 12 Oeste 28 Noroeste 0 -- -- 42
2020-06-21 13:00:00 25.3 11 Oeste 22 Oeste 0 -- -- 42
2020-06-21 12:00:00 24.3 7 Sur 22 Oeste 0 -- -- 47
2020-06-21 11:00:00 21.6 4 Sudeste 8 Este 0 -- -- 52
2020-06-21 10:00:00 18.2 3 Este 6 Nordeste 0 -- -- 63
2020-06-21 09:00:00 13.9 3 Nordeste 6 Nordeste 0 -- -- 79
2020-06-21 08:00:00 9.8 0 Calma 4 Sur 0 -- -- 91
2020-06-21 07:00:00 8.9 0 Calma 3 Oeste 0 -- -- 88
2020-06-21 06:00:00 9 0 Calma 2 Este 0 -- -- 87
2020-06-21 05:00:00 9.4 0 Calma 5 Oeste 0 -- -- 86
2020-06-21 04:00:00 10 2 Sur 6 Sudoeste 0 -- -- 84
2020-06-21 03:00:00 10.5 0 Calma 10 Sudoeste 0 -- -- 82
2020-06-21 02:00:00 11.6 0 Calma 6 Sudoeste 0 -- -- 77
2020-06-21 01:00:00 12.9 0 Calma 4 Sudoeste 0 -- -- 73
2020-06-21 00:00:00 14.6 0 Calma 4 Sur 0 -- -- 66
2020-06-20 23:00:00 16.1 0 Calma 5 Sudeste 0 -- -- 62
2020-06-20 22:00:00 18.3 3 Sur 16 Noroeste 0 -- -- 59
2020-06-20 21:00:00 20.7 8 Norte 16 Noroeste 0 -- -- 50
2020-06-20 20:00:00 24.1 9 Noroeste 22 Noroeste 0 -- -- 43
2020-06-20 19:00:00 24.7 6 Nordeste 19 Noroeste 0 -- -- 41
2020-06-20 18:00:00 24.8 4 Sudeste 17 Oeste 0 -- -- 41
2020-06-20 17:00:00 25.1 10 Oeste 26 Noroeste 0 -- -- 37
2020-06-20 16:00:00 24.4 5 Nordeste 16 Sudoeste 0 -- -- 49
2020-06-20 15:00:00 23.6 4 Oeste 22 Sur 0 -- -- 55
2020-06-20 14:00:00 24.2 8 Sudoeste 25 Sudoeste 0 -- -- 53
2020-06-20 13:00:00 23.5 9 Sur 23 Sur 0 -- -- 58
2020-06-20 12:00:00 22.9 8 Sudoeste 16 Sudoeste 0 -- -- 59
2020-06-20 11:00:00 19.6 0 Calma 7 Sur 0 -- -- 64
2020-06-20 10:00:00 17.4 2 Sur 8 Nordeste 0 -- -- 70
2020-06-20 09:00:00 15.1 3 Este 6 Este 0 -- -- 76
2020-06-20 08:00:00 11.3 0 Calma 2 Sudoeste 0 -- -- 91
2020-06-20 07:00:00 10.5 0 Calma 3 Oeste 0 -- -- 90
2020-06-20 06:00:00 10.9 0 Calma 3 Sudoeste 0 -- -- 89
2020-06-20 05:00:00 10.7 0 Calma 5 Noroeste 0 -- -- 87
2020-06-20 04:00:00 10.9 0 Calma 4 Noroeste 0 -- -- 85
2020-06-20 03:00:00 11.8 0 Calma 8 Sur 0 -- -- 85
2020-06-20 02:00:00 12.7 0 Calma 9 Norte 0 -- -- 83
2020-06-20 01:00:00 13.2 2 Sur 9 Norte 0 -- -- 80
2020-06-20 00:00:00 13.8 3 Nordeste 9 Norte 0 -- -- 76
2020-06-19 23:00:00 14.9 3 Nordeste 10 Nordeste 0 -- -- 72
2020-06-19 22:00:00 16.8 6 Norte 17 Norte 0 -- -- 66
2020-06-19 21:00:00 19.5 4 Norte 12 Nordeste 0 -- -- 58
2020-06-19 20:00:00 22.5 4 Noroeste 9 Norte 0 -- -- 46
2020-06-19 19:00:00 21.8 2 Nordeste 17 Sudoeste 0 -- -- 48
2020-06-19 18:00:00 23.4 5 Oeste 20 Sudoeste 0 -- -- 43
2020-06-19 17:00:00 23.4 6 Oeste 20 Oeste 0 -- -- 42
2020-06-19 16:00:00 21.8 4 Oeste 19 Sudeste 0 -- -- 52
2020-06-19 15:00:00 22.3 7 Sur 25 Sur 0 -- -- 55
2020-06-19 14:00:00 21.1 6 Sur 21 Sudoeste 0 -- -- 56
2020-06-19 13:00:00 21.9 7 Sur 21 Oeste 0 -- -- 57
2020-06-19 12:00:00 20 6 Sudoeste 19 Sur 0 -- -- 61
2020-06-19 11:00:00 17.8 5 Este 8 Este 0 -- -- 66
2020-06-19 10:00:00 13.7 4 Nordeste 8 Nordeste 0 -- -- 74
2020-06-19 09:00:00 10.3 2 Oeste 5 Oeste 0 -- -- 87
2020-06-19 08:00:00 8.6 2 Oeste 5 Noroeste 0 -- -- 93
2020-06-19 07:00:00 7.8 3 Nordeste 6 Norte 0 -- -- 91
2020-06-19 06:00:00 7.9 0 Calma 2 Sur 0 -- -- 89
2020-06-19 05:00:00 8.7 0 Calma 3 Nordeste 0 -- -- 87
2020-06-19 04:00:00 9.8 0 Calma 2 Oeste 0 -- -- 83
2020-06-19 03:00:00 11.1 0 Calma 6 Este 0 -- -- 78
2020-06-19 02:00:00 11.5 2 Nordeste 5 Noroeste 0 -- -- 77
2020-06-19 01:00:00 12 2 Nordeste 4 Norte 0 -- -- 76
2020-06-19 00:00:00 12.5 2 Norte 9 Norte 0 -- -- 68
2020-06-18 23:00:00 12.6 0 Calma 6 Nordeste 0 -- -- 67
2020-06-18 22:00:00 14.6 3 Norte 11 Nordeste 0 -- -- 61
2020-06-18 21:00:00 17 4 Norte 14 Noroeste 0 -- -- 56
2020-06-18 20:00:00 18.1 11 Noroeste 15 Noroeste 0 -- -- 48
2020-06-18 19:00:00 19.2 5 Noroeste 17 Oeste 0 -- -- 48
2020-06-18 18:00:00 19.5 11 Noroeste 20 Noroeste 0 -- -- 47
2020-06-18 17:00:00 19.3 4 Noroeste 13 Nordeste 0 -- -- 49
2020-06-18 16:00:00 18 6 Sudeste 10 Este 0 -- -- 51
2020-06-18 15:00:00 17.9 4 Nordeste 15 Sudoeste 0 -- -- 61
2020-06-18 14:00:00 18.1 5 Sur 17 Sur 0 -- -- 57
2020-06-18 13:00:00 16.1 4 Sudoeste 9 Sudoeste 0 -- -- 70
2020-06-18 12:00:00 13.6 3 Sudeste 14 Norte 0.2 -- -- 77
2020-06-18 11:00:00 11.2 2 Nordeste 12 Noroeste 0 -- -- 88
2020-06-18 10:00:00 10.6 0 Calma 9 Oeste 0 -- -- 92
2020-06-18 09:00:00 9.7 4 Sur 18 Noroeste 0.4 -- -- 89
2020-06-18 08:00:00 8.7 0 Calma 11 Oeste 1.4 -- -- 93
2020-06-18 07:00:00 8.2 0 Calma 6 Oeste 0 -- -- 92
2020-06-18 06:00:00 8 0 Calma 8 Nordeste 0 -- -- 92
2020-06-18 05:00:00 8.1 2 Nordeste 4 Nordeste 0 -- -- 91
2020-06-18 04:00:00 8.3 0 Calma 5 Noroeste 0 -- -- 88
2020-06-18 03:00:00 8.5 0 Calma 8 Sudoeste 0 -- -- 87
2020-06-18 02:00:00 8.6 2 Norte 6 Nordeste 0 -- -- 84
2020-06-18 01:00:00 9.5 2 Sudeste 8 Sudoeste 0 -- -- 81
2020-06-18 00:00:00 11.3 3 Sur 12 Norte 0 -- -- 71
2020-06-17 23:00:00 12.9 9 Noroeste 19 Nordeste 0 -- -- 62
2020-06-17 22:00:00 13.5 8 Norte 21 Noroeste 0 -- -- 60
2020-06-17 21:00:00 14.8 8 Norte 17 Noroeste 0 -- -- 57
2020-06-17 20:00:00 17.1 11 Noroeste 18 Noroeste 0 -- -- 48
2020-06-17 19:00:00 17.5 14 Noroeste 29 Noroeste 0 -- -- 45
2020-06-17 18:00:00 18.6 10 Oeste 29 Noroeste 0 -- -- 45
2020-06-17 17:00:00 18.7 9 Oeste 27 Oeste 0 -- -- 42
2020-06-17 16:00:00 18.1 12 Noroeste 25 Noroeste 0 -- -- 45
2020-06-17 15:00:00 17.1 13 Oeste 33 Oeste 0 -- -- 50
2020-06-17 14:00:00 16 15 Oeste 29 Oeste 0 -- -- 52
2020-06-17 13:00:00 16.9 13 Oeste 31 Noroeste 0 -- -- 51
2020-06-17 12:00:00 15.9 12 Oeste 32 Oeste 0 -- -- 57
2020-06-17 11:00:00 14.6 8 Oeste 19 Oeste 0 -- -- 61
2020-06-17 10:00:00 11.6 3 Sur 8 Sudoeste 0 -- -- 80
2020-06-17 09:00:00 9.1 3 Sudoeste 7 Sudoeste 0 -- -- 89
2020-06-17 08:00:00 7.4 0 Calma 9 Sudoeste 0 -- -- 93
2020-06-17 07:00:00 6.7 3 Sudoeste 8 Sur 0 -- -- 94
2020-06-17 06:00:00 6.3 0 Calma 6 Oeste 0 -- -- 92
2020-06-17 05:00:00 6.8 0 Calma 9 Noroeste 0 -- -- 90
2020-06-17 04:00:00 7.7 0 Calma 9 Oeste 0 -- -- 86
2020-06-17 03:00:00 9.1 0 Calma 24 Oeste 0 -- -- 79
2020-06-17 02:00:00 9.8 0 Calma 28 Oeste 0 -- -- 78
2020-06-17 01:00:00 11.3 6 Noroeste 25 Noroeste 0 -- -- 73
2020-06-17 00:00:00 12.2 8 Noroeste 15 Noroeste 0 -- -- 70
2020-06-16 23:00:00 11.6 0 Calma 21 Oeste 0 -- -- 78
2020-06-16 22:00:00 12.7 6 Norte 20 Noroeste 0 -- -- 74
2020-06-16 21:00:00 14.1 7 Noroeste 19 Oeste 0 -- -- 65
2020-06-16 20:00:00 15 7 Noroeste 18 Noroeste 0 -- -- 66
2020-06-16 19:00:00 16.3 4 Noroeste 17 Nordeste 0 -- -- 62
2020-06-16 18:00:00 15.5 4 Norte 16 Nordeste 0.4 -- -- 69
2020-06-16 17:00:00 13.7 6 Noroeste 13 Sudoeste 0.8 -- -- 80
2020-06-16 16:00:00 15.2 6 Sudoeste 15 Nordeste 0 -- -- 79
2020-06-16 15:00:00 12.3 7 Noroeste 26 Sudoeste 3.2 -- -- 85
2020-06-16 14:00:00 18.4 7 Sur 19 Sudoeste 0 -- -- 62
2020-06-16 13:00:00 18.5 5 Sur 13 Sudeste 0 -- -- 65
2020-06-16 12:00:00 16 5 Sur 14 Sudoeste 0 -- -- 69
2020-06-16 11:00:00 14.1 2 Sur 6 Sudoeste 0 -- -- 76
2020-06-16 10:00:00 12.2 3 Este 5 Sudoeste 0 -- -- 86
2020-06-16 09:00:00 11.6 0 Calma 6 Noroeste 0 -- -- 88
2020-06-16 08:00:00 11 2 Este 4 Nordeste 0 -- -- 91
2020-06-16 07:00:00 10.7 3 Noroeste 8 Noroeste 0 -- -- 92
2020-06-16 06:00:00 10.8 0 Calma 5 Noroeste 0 -- -- 90
2020-06-16 05:00:00 11 0 Calma 3 Sudoeste 0 -- -- 88
2020-06-16 04:00:00 11.2 2 Sudoeste 5 Oeste 0 -- -- 85
2020-06-16 03:00:00 11.5 0 Calma 5 Sudoeste 0 -- -- 83
2020-06-16 02:00:00 12.2 0 Calma 3 Oeste 0 -- -- 79
2020-06-16 01:00:00 13.1 2 Sur 9 Sudeste 0 -- -- 73
2020-06-16 00:00:00 14 0 Calma 18 Noroeste 0 -- -- 68
2020-06-15 23:00:00 14.3 2 Sudoeste 12 Noroeste 0 -- -- 70
2020-06-15 22:00:00 14.9 2 Noroeste 10 Noroeste 0 -- -- 66
2020-06-15 21:00:00 16.2 10 Noroeste 23 Noroeste 0 -- -- 57
2020-06-15 20:00:00 18.4 8 Noroeste 15 Noroeste 0 -- -- 55
2020-06-15 19:00:00 19 7 Noroeste 19 Oeste 0 -- -- 56
2020-06-15 18:00:00 19.2 5 Noroeste 17 Noroeste 0 -- -- 51
2020-06-15 17:00:00 19.4 6 Oeste 22 Oeste 0 -- -- 50
2020-06-15 16:00:00 20 4 Noroeste 18 Sudoeste 0 -- -- 49
2020-06-15 15:00:00 19.8 6 Sudoeste 21 Sudoeste 0 -- -- 47
2020-06-15 14:00:00 18.6 5 Sur 16 Sudeste 0 -- -- 53
2020-06-15 13:00:00 18.8 6 Oeste 19 Sudoeste 0 -- -- 52
2020-06-15 12:00:00 17.9 3 Norte 8 Sur 0 -- -- 56
2020-06-15 11:00:00 15.4 3 Sudeste 6 Sudeste 0 -- -- 65
2020-06-15 10:00:00 13.2 4 Nordeste 6 Nordeste 0 -- -- 79
2020-06-15 09:00:00 11.4 0 Calma 5 Sudeste 0 -- -- 86
2020-06-15 08:00:00 10 0 Calma 4 Nordeste 0 -- -- 92
2020-06-15 07:00:00 9.6 0 Calma 4 Sudoeste 0 -- -- 92
2020-06-15 06:00:00 9.5 0 Calma 3 Este 0 -- -- 92
2020-06-15 05:00:00 9.6 0 Calma 4 Oeste 0 -- -- 89
2020-06-15 04:00:00 9.8 0 Calma 4 Noroeste 0 -- -- 87
2020-06-15 03:00:00 10.7 0 Calma 5 Este 0 -- -- 83
2020-06-15 02:00:00 12.7 3 Norte 19 Norte 0 -- -- 75
2020-06-15 01:00:00 13.6 9 Norte 23 Nordeste 0 -- -- 71
2020-06-15 00:00:00 13.8 12 Noroeste 28 Norte 0 -- -- 70
2020-06-14 23:00:00 13.9 12 Norte 32 Norte 0 -- -- 70
2020-06-14 22:00:00 14.8 11 Noroeste 20 Norte 0 -- -- 69
2020-06-14 21:00:00 15.6 5 Norte 14 Norte 0 -- -- 69
2020-06-14 20:00:00 16.6 3 Nordeste 6 Este 0 -- -- 69
2020-06-14 19:00:00 17.7 3 Sur 7 Sudoeste 0 -- -- 62
2020-06-14 18:00:00 18.7 5 Nordeste 12 Este 0 -- -- 52
2020-06-14 17:00:00 18.6 6 Nordeste 18 Oeste 0 -- -- 53
2020-06-14 16:00:00 18.1 10 Oeste 16 Noroeste 0 -- -- 50
2020-06-14 15:00:00 18.1 6 Este 15 Nordeste 0 -- -- 56
2020-06-14 14:00:00 17.2 4 Noroeste 15 Oeste 0 -- -- 59
2020-06-14 13:00:00 18.1 5 Sur 14 Sudoeste 0 -- -- 63
2020-06-14 12:00:00 17.7 2 Sur 11 Sudeste 0 -- -- 63
2020-06-14 11:00:00 16.6 4 Sudeste 7 Sur 0 -- -- 61
2020-06-14 10:00:00 12.6 0 Calma 0 Calma 0 -- -- 83
2020-06-14 09:00:00 10.1 0 Calma 3 Este 0 -- -- 94
2020-06-14 08:00:00 8.5 0 Calma 2 Nordeste 0 -- -- 96
2020-06-14 07:00:00 7.9 0 Calma 3 Oeste 0 -- -- 96
2020-06-14 06:00:00 7.5 0 Calma 3 Oeste 0 -- -- 95
2020-06-14 05:00:00 7.3 0 Calma 5 Nordeste 0 -- -- 95
2020-06-14 04:00:00 7.4 0 Calma 5 Oeste 0 -- -- 94
2020-06-14 03:00:00 7.7 0 Calma 5 Oeste 0 -- -- 93
2020-06-14 02:00:00 7.8 2 Noroeste 5 Noroeste 0 -- -- 93
2020-06-14 01:00:00 8.1 0 Calma 5 Sur 0 -- -- 91
2020-06-14 00:00:00 8.8 0 Calma 4 Noroeste 0 -- -- 88
2020-06-13 23:00:00 10.3 2 Nordeste 14 Norte 0 -- -- 83
2020-06-13 22:00:00 12 7 Norte 18 Norte 0 -- -- 73
2020-06-13 21:00:00 13.4 9 Norte 18 Norte 0 -- -- 69
2020-06-13 20:00:00 15.9 6 Norte 12 Norte 0 -- -- 61
2020-06-13 19:00:00 16.5 5 Nordeste 13 Nordeste 0 -- -- 55
2020-06-13 18:00:00 15.9 8 Norte 16 Nordeste 0 -- -- 59
2020-06-13 17:00:00 15.1 3 Nordeste 16 Oeste 0 -- -- 63
2020-06-13 16:00:00 14 12 Noroeste 21 Noroeste 0 -- -- 68
2020-06-13 15:00:00 15.4 3 Nordeste 13 Noroeste 0 -- -- 61
2020-06-13 14:00:00 14.6 2 Nordeste 15 Oeste 0 -- -- 73
2020-06-13 13:00:00 13.5 3 Sur 14 Oeste 0 -- -- 76
2020-06-13 12:00:00 13.5 2 Sur 17 Oeste 0 -- -- 80
2020-06-13 11:00:00 12.2 5 Noroeste 18 Oeste 0 -- -- 79
2020-06-13 10:00:00 10.6 2 Sudoeste 8 Nordeste 0.6 -- -- 93
2020-06-13 09:00:00 9.6 0 Calma 3 Oeste 0 -- -- 97
2020-06-13 08:00:00 8.9 2 Este 4 Oeste 0.4 -- -- 97
2020-06-13 07:00:00 8.4 2 Sur 5 Sudoeste 0.2 -- -- 96
2020-06-13 06:00:00 8.4 0 Calma 4 Noroeste 0 -- -- 96
2020-06-13 05:00:00 8.4 3 Oeste 4 Sudoeste 0 -- -- 96
2020-06-13 04:00:00 8.3 3 Norte 6 Noroeste 0 -- -- 96
2020-06-13 03:00:00 8.3 0 Calma 10 Noroeste 0 -- -- 96
2020-06-13 02:00:00 8.5 0 Calma 5 Oeste 0 -- -- 95
2020-06-13 01:00:00 8.9 0 Calma 4 Sudoeste 0 -- -- 95
2020-06-13 00:00:00 9.1 0 Calma 4 Sudoeste 0 -- -- 94
2020-06-12 23:00:00 9.2 2 Noroeste 5 Noroeste 0 -- -- 92
2020-06-12 22:00:00 9.7 0 Calma 8 Noroeste 0.8 -- -- 93
2020-06-12 21:00:00 10.2 6 Nordeste 34 Oeste 1.4 -- -- 89
2020-06-12 20:00:00 10.9 7 Oeste 20 Sudoeste 0.8 -- -- 84
2020-06-12 19:00:00 11.9 9 Sudoeste 17 Sudoeste 0 -- -- 79
2020-06-12 18:00:00 12.2 9 Sudeste 23 Sudeste 0 -- -- 69
2020-06-12 17:00:00 13.6 9 Sur 26 Sudoeste 0 -- -- 62
2020-06-12 16:00:00 12.9 10 Sur 26 Sudoeste 0 -- -- 65
2020-06-12 15:00:00 12.1 10 Sur 28 Sur 0 -- -- 67
2020-06-12 14:00:00 12.2 8 Sur 27 Sudoeste 0 -- -- 65
2020-06-12 13:00:00 11.6 15 Sur 31 Sudoeste 0 -- -- 67
2020-06-12 12:00:00 10.6 8 Sur 24 Sudoeste 0 -- -- 71
2020-06-12 11:00:00 10.7 10 Sur 25 Sur 0 -- -- 70
2020-06-12 10:00:00 10.1 9 Sudoeste 19 Sudoeste 0 -- -- 77
2020-06-12 09:00:00 9.1 4 Sudoeste 10 Sudoeste 0.2 -- -- 91
2020-06-12 08:00:00 8 2 Oeste 10 Noroeste 0 -- -- 96
2020-06-12 07:00:00 7.4 2 Sudeste 6 Sur 0 -- -- 96
2020-06-12 06:00:00 7.5 2 Oeste 6 Sur 0 -- -- 96
2020-06-12 05:00:00 7.9 0 Calma 5 Nordeste 0 -- -- 96
2020-06-12 04:00:00 7.9 0 Calma 5 Oeste 0 -- -- 95
2020-06-12 03:00:00 8.1 0 Calma 3 Este 0 -- -- 95
2020-06-12 02:00:00 8.2 0 Calma 10 Noroeste 0 -- -- 94
2020-06-12 01:00:00 8.4 5 Oeste 10 Este 0.2 -- -- 92
2020-06-12 00:00:00 8.6 6 Sudoeste 55 Sudoeste 1.4 -- -- 89
2020-06-11 23:00:00 10.4 7 Noroeste 44 Noroeste 0 -- -- 91
2020-06-11 22:00:00 10.2 2 Sur 10 Sur 0 -- -- 92
2020-06-11 21:00:00 10.7 5 Sudoeste 42 Noroeste 6.4 -- -- 88
2020-06-11 20:00:00 13.8 13 Sudeste 33 Sudeste 0.2 -- -- 79
2020-06-11 19:00:00 13.6 3 Sudoeste 28 Noroeste 0.4 -- -- 88
2020-06-11 18:00:00 13.2 5 Noroeste 13 Noroeste 2.4 -- -- 87
2020-06-11 17:00:00 14.7 9 Sur 31 Sudeste 0.2 -- -- 74
2020-06-11 16:00:00 14.7 5 Sudeste 21 Sudeste 0 -- -- 76
2020-06-11 15:00:00 12.9 5 Sudoeste 15 Sur 0.4 -- -- 85
2020-06-11 14:00:00 13.7 7 Sudeste 21 Sudeste 0.2 -- -- 74
2020-06-11 13:00:00 13.9 8 Sur 15 Sudoeste 0.2 -- -- 71
2020-06-11 12:00:00 14 7 Sur 16 Sudeste 0 -- -- 69
2020-06-11 11:00:00 13.9 10 Sur 22 Sur 0 -- -- 73
2020-06-11 10:00:00 11.6 0 Calma 4 Sudoeste 0 -- -- 85
2020-06-11 09:00:00 10.2 2 Nordeste 4 Nordeste 0.2 -- -- 93
2020-06-11 08:00:00 9.6 2 Este 5 Sudeste 0 -- -- 93
2020-06-11 07:00:00 9.3 0 Calma 5 Sudeste 0 -- -- 93
2020-06-11 06:00:00 9.4 0 Calma 4 Sudoeste 0 -- -- 92
2020-06-11 05:00:00 9.6 2 Sudoeste 7 Noroeste 0 -- -- 91
2020-06-11 04:00:00 9.9 2 Noroeste 6 Sur 0.4 -- -- 88
2020-06-11 03:00:00 10.6 3 Noroeste 10 Sudoeste 0 -- -- 79
2020-06-11 02:00:00 11.1 3 Sur 17 Noroeste 0 -- -- 73
2020-06-11 01:00:00 11.4 8 Noroeste 16 Noroeste 0 -- -- 68
2020-06-11 00:00:00 11.7 2 Sur 7 Noroeste 0 -- -- 65
2020-06-10 23:00:00 12.5 7 Noroeste 17 Noroeste 0 -- -- 55
2020-06-10 22:00:00 13.1 8 Noroeste 17 Nordeste 0 -- -- 55
2020-06-10 21:00:00 14 8 Noroeste 16 Nordeste 0 -- -- 53
2020-06-10 20:00:00 14.7 7 Noroeste 25 Oeste 0 -- -- 51
2020-06-10 19:00:00 15 17 Noroeste 25 Noroeste 0 -- -- 61
2020-06-10 18:00:00 -- 12 Noroeste 27 Norte 0 -- -- --
2020-06-10 17:00:00 16.1 8 Norte 26 Nordeste 0 -- -- 53
2020-06-10 16:00:00 17.5 10 Noroeste 24 Oeste 0 -- -- 50
2020-06-10 15:00:00 19 5 Nordeste 19 Oeste 0 -- -- 50
2020-06-10 14:00:00 18.6 9 Noroeste 22 Noroeste 0 -- -- 47
2020-06-10 13:00:00 17.6 10 Nordeste 20 Nordeste 0 -- -- 41
2020-06-10 12:00:00 16.6 13 Nordeste 26 Nordeste 0 -- -- 46
2020-06-10 11:00:00 15.4 15 Nordeste 27 Nordeste 0 -- -- 48
2020-06-10 10:00:00 14.3 4 Sudeste 10 Sur 0 -- -- 54
2020-06-10 09:00:00 11.6 8 Sur 12 Sudoeste 0 -- -- 68
2020-06-10 08:00:00 6.8 5 Sudoeste 14 Sudoeste 0 -- -- 87
2020-06-10 07:00:00 5.3 6 Sudoeste 16 Sudoeste 0 -- -- 87
2020-06-10 06:00:00 6.4 9 Sudoeste 29 Norte 0 -- -- 82
2020-06-10 05:00:00 10.9 13 Nordeste 40 Nordeste 0 -- -- 61
2020-06-10 04:00:00 11.5 13 Norte 27 Nordeste 0 -- -- 59
2020-06-10 03:00:00 11.8 12 Noroeste 32 Norte 0 -- -- 58
2020-06-10 02:00:00 11.8 13 Norte 30 Nordeste 0 -- -- 57
2020-06-10 01:00:00 11.7 9 Noroeste 32 Norte 0 -- -- 58
2020-06-10 00:00:00 11.8 12 Norte 40 Norte 0 -- -- 58
2020-06-09 23:00:00 11.6 14 Norte 36 Norte 0 -- -- 60
2020-06-09 22:00:00 11.6 20 Noroeste 45 Nordeste 0 -- -- 61
2020-06-09 21:00:00 11.6 14 Norte 42 Norte 0 -- -- 62
2020-06-09 20:00:00 12.6 20 Noroeste 46 Norte 0 -- -- 59
2020-06-09 19:00:00 14 14 Norte 42 Nordeste 0 -- -- 55
2020-06-09 18:00:00 15.1 17 Norte 44 Nordeste 0 -- -- 50
2020-06-09 17:00:00 15.3 21 Nordeste 45 Norte 0 -- -- 47
2020-06-09 16:00:00 15.3 19 Norte 48 Nordeste 0 -- -- 49
2020-06-09 15:00:00 15.4 20 Nordeste 44 Norte 0 -- -- 49
2020-06-09 14:00:00 15.5 15 Norte 37 Norte 0 -- -- 52
2020-06-09 13:00:00 14.8 17 Norte 37 Nordeste 0 -- -- 53
2020-06-09 12:00:00 14.6 15 Norte 40 Nordeste 0 -- -- 52
2020-06-09 11:00:00 13.8 13 Norte 42 Nordeste 0 -- -- 56
2020-06-09 10:00:00 12.6 16 Norte 41 Nordeste 0 -- -- 57
2020-06-09 09:00:00 12 12 Norte 37 Nordeste 0 -- -- 59
2020-06-09 08:00:00 10.7 12 Norte 34 Nordeste 0 -- -- 62
2020-06-09 07:00:00 9.8 8 Norte 33 Noroeste 0 -- -- 64
2020-06-09 06:00:00 9.8 15 Norte 34 Nordeste 0 -- -- 64
2020-06-09 05:00:00 10.1 16 Noroeste 35 Noroeste 0 -- -- 64
2020-06-09 04:00:00 10.1 14 Noroeste 36 Noroeste 0 -- -- 65
2020-06-09 03:00:00 10.4 13 Noroeste 37 Noroeste 0 -- -- 64
2020-06-09 02:00:00 10.4 12 Norte 35 Noroeste 0 -- -- 65
2020-06-09 01:00:00 9.6 12 Noroeste 23 Noroeste 0 -- -- 72
2020-06-09 00:00:00 9.9 13 Noroeste 25 Noroeste 0 -- -- 73